Time;durP1;ratioP1;P1;durP2;ratioP2;P2;SDS_P1;SDS_P2;PMS_P1;PMS_P2;Temp;Humidity;BMP_temperature;BMP_pressure;BME280_temperature;BME280_humidity;BME280_pressure;Samples;Min_cycle;Max_cycle;Signal;HPM_P1;HPM_P2
2023/03/26 00:01:32;;;;;;;2.38;2.05;;;;;;;7.26;100.00;99711.91;4918524;29;20051;-82
2023/03/26 00:04:00;;;;;;;4.82;2.20;;;;;;;7.28;100.00;99729.25;4915884;29;20058;-83
2023/03/26 00:06:36;;;;;;;8.55;2.25;;;;;;;7.22;100.00;99723.25;4947883;28;20089;-82
2023/03/26 00:09:05;;;;;;;8.68;2.20;;;;;;;7.23;100.00;99722.38;4934938;29;20058;-81
2023/03/26 00:11:31;;;;;;;3.88;2.05;;;;;;;7.31;100.00;99719.69;4945846;28;20043;-82
2023/03/26 00:13:58;;;;;;;5.63;2.47;;;;;;;7.29;100.00;99724.91;4949943;28;20559;-82
2023/03/26 00:16:30;;;;;;;3.72;1.77;;;;;;;7.23;100.00;99725.81;4936177;29;20498;-82
2023/03/26 00:18:57;;;;;;;4.03;1.67;;;;;;;7.24;100.00;99732.75;4922254;28;20595;-81
2023/03/26 00:21:30;;;;;;;2.83;2.13;;;;;;;7.27;100.00;99742.28;4933943;29;20129;-82
2023/03/26 00:24:04;;;;;;;4.00;2.60;;;;;;;7.26;100.00;99743.16;4918938;28;20649;-82
2023/03/26 00:26:33;;;;;;;3.90;1.67;;;;;;;7.23;100.00;99746.66;4916007;28;20361;-84
2023/03/26 00:29:02;;;;;;;5.22;1.98;;;;;;;7.26;100.00;99740.53;4916932;28;20058;-82
2023/03/26 00:31:28;;;;;;;4.47;1.70;;;;;;;7.26;100.00;99740.53;4920790;29;20141;-82
2023/03/26 00:33:55;;;;;;;5.50;1.95;;;;;;;7.26;100.00;99745.75;4950984;28;20043;-80
2023/03/26 00:36:25;;;;;;;11.13;1.73;;;;;;;7.22;100.00;99755.34;4936536;29;20062;-81
2023/03/26 00:38:52;;;;;;;2.05;1.60;;;;;;;7.27;100.00;99758.78;4936839;28;20055;-82
2023/03/26 00:41:24;;;;;;;3.17;1.60;;;;;;;7.22;100.00;99755.34;4935733;29;20552;-82
2023/03/26 00:43:57;;;;;;;4.10;1.90;;;;;;;7.12;100.00;99749.38;4922282;28;20053;-81
2023/03/26 00:46:26;;;;;;;10.27;2.20;;;;;;;7.03;100.00;99757.25;4950354;28;20455;-82
2023/03/26 00:48:52;;;;;;;2.17;1.52;;;;;;;7.02;100.00;99765.94;4933042;28;20059;-82
2023/03/26 00:51:21;;;;;;;1.23;1.05;;;;;;;6.99;100.00;99763.38;4936698;29;20039;-83
2023/03/26 00:53:49;;;;;;;3.13;1.23;;;;;;;6.97;100.00;99764.25;4938612;28;20106;-82
2023/03/26 00:56:19;;;;;;;1.33;1.15;;;;;;;6.98;100.00;99764.25;4914980;28;20057;-81
2023/03/26 00:58:50;;;;;;;4.07;1.30;;;;;;;6.95;100.00;99761.69;4933069;28;20078;-82
2023/03/26 01:01:30;;;;;;;3.67;2.33;;;;;;;6.96;100.00;99771.19;4934266;29;20087;-84
2023/03/26 01:04:17;;;;;;;3.05;1.67;;;;;;;6.95;100.00;99767.72;4921816;28;20142;-81
2023/03/26 01:06:44;;;;;;;5.20;2.33;;;;;;;6.93;100.00;99768.63;4951210;28;20047;-81
2023/03/26 01:09:18;;;;;;;11.93;4.88;;;;;;;6.91;100.00;99773.84;4938210;28;20131;-82
2023/03/26 01:11:45;;;;;;;7.22;2.92;;;;;;;6.90;100.00;99772.09;4917346;28;20051;-82
2023/03/26 01:14:17;;;;;;;8.32;2.17;;;;;;;6.88;100.00;99771.28;4919980;28;20143;-82
2023/03/26 01:16:53;;;;;;;5.00;1.95;;;;;;;6.83;100.00;99765.25;4920961;28;20501;-82
2023/03/26 01:19:43;;;;;;;3.75;2.33;;;;;;;6.71;100.00;99781.78;4936137;29;20517;-82
2023/03/26 01:22:20;;;;;;;8.15;1.77;;;;;;;6.57;100.00;99770.63;4934712;28;20134;-82
2023/03/26 01:24:51;;;;;;;2.58;1.48;;;;;;;6.47;100.00;99769.81;4943772;28;20539;-82
2023/03/26 01:27:48;;;;;;;3.80;1.80;;;;;;;6.48;100.00;99771.56;4947000;28;20095;-82
2023/03/26 01:30:41;;;;;;;4.82;1.90;;;;;;;6.53;100.00;99779.31;4915063;29;20111;-81
2023/03/26 01:33:28;;;;;;;4.30;1.35;;;;;;;6.52;100.00;99769.78;4926191;29;20040;-82
2023/03/26 01:36:05;;;;;;;6.22;1.83;;;;;;;6.52;100.00;99768.06;4915591;29;20525;-82
2023/03/26 01:39:00;;;;;;;6.00;1.40;;;;;;;6.50;100.00;99780.19;4931467;29;20048;-81
2023/03/26 01:41:44;;;;;;;5.93;1.77;;;;;;;6.40;100.00;99765.53;4919311;29;20565;-82
2023/03/26 01:44:26;;;;;;;7.70;1.60;;;;;;;6.32;100.00;99769.91;4916447;29;20071;-82
2023/03/26 01:46:53;;;;;;;2.92;1.15;;;;;;;6.22;100.00;99775.16;4915935;29;20058;-82
2023/03/26 01:49:20;;;;;;;2.40;1.25;;;;;;;6.12;100.00;99771.75;4913883;29;20055;-82
2023/03/26 01:51:47;;;;;;;6.00;1.42;;;;;;;6.10;100.00;99765.72;4914612;29;20086;-82
2023/03/26 01:54:20;;;;;;;4.30;1.13;;;;;;;6.10;100.00;99776.09;4918128;29;20070;-81
2023/03/26 01:57:04;;;;;;;4.57;1.30;;;;;;;6.19;100.00;99771.72;4917144;29;20062;-83
2023/03/26 02:00:10;;;;;;;4.57;0.88;;;;;;;6.22;100.00;99769.09;4928633;29;20166;-82
2023/03/26 02:02:53;;;;;;;3.53;0.70;;;;;;;6.24;100.00;99768.22;4926862;29;20095;-83
2023/03/26 02:05:37;;;;;;;2.00;0.70;;;;;;;6.24;100.00;99764.75;4914142;29;20099;-82
2023/03/26 02:08:30;;;;;;;3.15;1.10;;;;;;;6.07;100.00;99775.25;4913479;29;20470;-82
2023/03/26 02:11:00;;;;;;;4.18;0.88;;;;;;;5.96;100.00;99770.91;4914531;29;20048;-82
2023/03/26 02:13:27;;;;;;;4.05;1.10;;;;;;;5.88;100.00;99772.69;4941130;29;20498;-81
2023/03/26 02:16:01;;;;;;;5.22;0.65;;;;;;;5.75;100.00;99765.78;4944036;28;20047;-81
2023/03/26 02:18:35;;;;;;;4.57;1.25;;;;;;;5.77;100.00;99767.53;4925987;29;20032;-81
2023/03/26 02:21:18;;;;;;;2.88;0.88;;;;;;;5.86;100.00;99770.97;4914307;29;20115;-82
2023/03/26 02:23:47;;;;;;;4.53;0.80;;;;;;;6.00;100.00;99773.53;4931875;29;20448;-82
2023/03/26 02:26:17;;;;;;;3.47;0.60;;;;;;;6.08;100.00;99759.63;4930755;29;20047;-81
2023/03/26 02:28:44;;;;;;;6.88;1.65;;;;;;;6.11;100.00;99756.16;4915468;29;20055;-83
2023/03/26 02:31:12;;;;;;;2.97;0.82;;;;;;;6.19;100.00;99761.31;4932691;29;20111;-82
2023/03/26 02:33:46;;;;;;;1.88;0.80;;;;;;;6.18;100.00;99767.38;4929782;29;20470;-82
2023/03/26 02:36:13;;;;;;;3.72;0.90;;;;;;;6.19;100.00;99763.91;4933823;29;20055;-82
2023/03/26 02:38:40;;;;;;;5.57;0.65;;;;;;;6.19;100.00;99759.59;4920248;28;20051;-82
2023/03/26 02:41:07;;;;;;;1.00;0.80;;;;;;;6.18;100.00;99768.25;4931186;29;20043;-79
2023/03/26 02:43:33;;;;;;;4.63;0.57;;;;;;;6.22;100.00;99763.88;4931426;29;20047;-82
2023/03/26 02:46:01;;;;;;;15.52;2.05;;;;;;;6.30;100.00;99764.72;4930587;29;20047;-83
2023/03/26 02:48:28;;;;;;;5.75;0.70;;;;;;;6.36;100.00;99769.91;4930835;29;20074;-82
2023/03/26 02:50:54;;;;;;;1.75;0.77;;;;;;;6.38;100.00;99765.53;4931076;29;20082;-85
2023/03/26 02:53:28;;;;;;;4.15;0.90;;;;;;;6.38;100.00;99767.28;4933906;29;20077;-81
2023/03/26 02:55:59;;;;;;;4.25;0.82;;;;;;;6.39;100.00;99756.88;4930226;28;20051;-82
2023/03/26 02:58:28;;;;;;;2.53;0.60;;;;;;;6.46;100.00;99766.34;4917041;29;20406;-80
2023/03/26 03:00:56;;;;;;;9.65;1.10;;;;;;;6.42;100.00;99758.59;4915742;29;20055;-81
2023/03/26 03:03:28;;;;;;;1.35;0.60;;;;;;;6.35;100.00;99759.50;4946243;28;20475;-83
2023/03/26 03:05:58;;;;;;;1.85;0.95;;;;;;;6.34;100.00;99752.59;4918075;28;20069;-80
2023/03/26 03:08:28;;;;;;;2.70;0.82;;;;;;;6.31;100.00;99758.66;4953734;28;20036;-82
2023/03/26 03:11:10;;;;;;;9.32;1.33;;;;;;;6.31;100.00;99760.38;4933114;29;20047;-81
2023/03/26 03:13:37;;;;;;;5.15;0.88;;;;;;;6.24;100.00;99754.38;4948370;28;20055;-83
2023/03/26 03:16:03;;;;;;;4.30;0.80;;;;;;;6.03;100.00;99755.34;4919549;29;20058;-82
2023/03/26 03:18:30;;;;;;;3.65;0.65;;;;;;;5.93;100.00;99747.56;4929586;29;20429;-83
2023/03/26 03:20:57;;;;;;;3.03;1.23;;;;;;;5.90;100.00;99736.31;4935115;29;20055;-82
2023/03/26 03:23:27;;;;;;;4.03;0.80;;;;;;;5.98;100.00;99737.16;4928402;29;20075;-82
2023/03/26 03:25:55;;;;;;;2.38;0.43;;;;;;;6.05;100.00;99733.69;4914499;29;20059;-82
2023/03/26 03:28:26;;;;;;;4.22;0.80;;;;;;;6.13;100.00;99734.50;4931459;29;20460;-84
2023/03/26 03:30:52;;;;;;;4.57;1.90;;;;;;;6.16;100.00;99735.38;4937008;28;20184;-82
2023/03/26 03:33:21;;;;;;;0.82;0.60;;;;;;;6.22;100.00;99736.19;4936096;28;20065;-84
2023/03/26 03:35:51;;;;;;;4.18;1.00;;;;;;;6.26;100.00;99739.63;4920409;29;20528;-82
2023/03/26 03:38:18;;;;;;;4.00;0.70;;;;;;;6.32;99.62;99741.31;4937171;29;20074;-83
2023/03/26 03:40:45;;;;;;;5.20;0.50;;;;;;;6.34;98.81;99734.41;4931468;29;20058;-83
2023/03/26 03:43:12;;;;;;;3.88;0.88;;;;;;;6.36;97.67;99743.03;4921366;29;20057;-82
2023/03/26 03:45:38;;;;;;;3.25;0.70;;;;;;;6.37;97.55;99740.41;4930889;29;20142;-82
2023/03/26 03:48:08;;;;;;;7.43;0.70;;;;;;;6.22;98.87;99736.19;4921967;29;20379;-83
2023/03/26 03:50:34;;;;;;;2.20;0.73;;;;;;;6.01;100.00;99733.69;4931376;29;20548;-82
2023/03/26 03:53:01;;;;;;;3.90;0.73;;;;;;;5.83;100.00;99738.09;4934686;29;20447;-82
2023/03/26 03:55:28;;;;;;;5.78;1.25;;;;;;;5.75;100.00;99735.53;4932968;29;20502;-82
2023/03/26 03:57:58;;;;;;;2.45;0.57;;;;;;;5.63;100.00;99732.94;4919074;29;20058;-81
2023/03/26 04:00:25;;;;;;;3.35;0.75;;;;;;;5.56;100.00;99739.91;4933871;29;20138;-82
2023/03/26 04:02:53;;;;;;;2.15;0.80;;;;;;;5.58;100.00;99740.78;4916593;29;20067;-81
2023/03/26 04:05:20;;;;;;;4.47;1.00;;;;;;;5.55;100.00;99734.72;4937112;29;20107;-80
2023/03/26 04:07:47;;;;;;;5.45;1.35;;;;;;;5.46;100.00;99736.50;4937000;29;20043;-81
2023/03/26 04:10:15;;;;;;;4.70;1.13;;;;;;;5.46;100.00;99741.69;4930670;29;20094;-80
2023/03/26 04:12:42;;;;;;;5.32;2.03;;;;;;;5.39;100.00;99739.97;4945648;28;20040;-83
2023/03/26 04:15:09;;;;;;;3.97;0.80;;;;;;;5.40;100.00;99741.69;4931258;29;20047;-81
2023/03/26 04:17:41;;;;;;;2.08;1.17;;;;;;;5.42;100.00;99734.78;4936953;29;20043;-81
2023/03/26 04:20:13;;;;;;;1.65;0.98;;;;;;;5.36;100.00;99737.38;4936605;29;20060;-81
2023/03/26 04:22:41;;;;;;;5.20;1.33;;;;;;;5.41;100.00;99742.53;4934657;29;20111;-81
2023/03/26 04:25:09;;;;;;;5.85;1.85;;;;;;;5.57;100.00;99746.81;4919151;29;20174;-81
2023/03/26 04:27:42;;;;;;;5.00;1.40;;;;;;;5.70;100.00;99745.06;4932371;29;20519;-83
2023/03/26 04:30:15;;;;;;;3.05;1.15;;;;;;;5.80;100.00;99749.34;4946804;29;20089;-81
2023/03/26 04:32:43;;;;;;;10.38;1.50;;;;;;;5.91;100.00;99743.25;4935008;29;20414;-83
2023/03/26 04:35:15;;;;;;;5.75;1.38;;;;;;;5.99;100.00;99744.09;4933629;29;20047;-80
2023/03/26 04:37:44;;;;;;;4.57;1.77;;;;;;;6.06;100.00;99739.72;4931391;29;20049;-81
2023/03/26 04:40:19;;;;;;;5.95;1.45;;;;;;;6.12;100.00;99737.97;4900131;29;20510;-81
2023/03/26 04:42:46;;;;;;;4.55;2.42;;;;;;;6.16;100.00;99743.16;4949192;29;20043;-82
2023/03/26 04:45:21;;;;;;;3.22;1.00;;;;;;;6.21;100.00;99737.06;4934737;29;20091;-83
2023/03/26 04:47:49;;;;;;;4.50;1.17;;;;;;;6.27;100.00;99731.81;4935534;29;20043;-84
2023/03/26 04:50:21;;;;;;;6.03;1.13;;;;;;;6.21;100.00;99725.81;4948677;28;20077;-83
2023/03/26 04:52:47;;;;;;;4.28;1.20;;;;;;;6.14;100.00;99727.59;4920129;28;20054;-84
2023/03/26 04:55:25;;;;;;;4.88;1.27;;;;;;;6.01;100.00;99731.97;4948120;29;20071;-82
2023/03/26 04:57:58;;;;;;;5.68;1.00;;;;;;;5.97;100.00;99738.88;4926019;29;20063;-83
2023/03/26 05:00:27;;;;;;;1.05;1.02;;;;;;;6.01;100.00;99731.09;4923493;28;20088;-83
2023/03/26 05:02:56;;;;;;;2.97;1.02;;;;;;;6.06;100.00;99732.81;4915487;29;20047;-84
2023/03/26 05:05:24;;;;;;;5.40;1.00;;;;;;;6.14;100.00;99730.19;4933529;29;20051;-82
2023/03/26 05:07:50;;;;;;;9.75;1.52;;;;;;;6.21;100.00;99726.66;4932600;29;20070;-82
2023/03/26 05:10:19;;;;;;;5.57;1.52;;;;;;;6.36;100.00;99717.03;4930854;29;20146;-82
2023/03/26 05:12:46;;;;;;;5.40;1.92;;;;;;;6.40;100.00;99721.34;4914617;29;20601;-81
2023/03/26 05:15:14;;;;;;;2.58;1.85;;;;;;;6.42;100.00;99723.03;4931496;28;20048;-83
2023/03/26 05:17:41;;;;;;;4.55;1.80;;;;;;;6.41;100.00;99720.47;4917200;29;20375;-82
2023/03/26 05:20:19;;;;;;;5.80;1.27;;;;;;;6.41;100.00;99716.16;4930581;29;20134;-82
2023/03/26 05:22:47;;;;;;;7.90;1.80;;;;;;;6.41;100.00;99720.47;4911121;29;20039;-83
2023/03/26 05:25:13;;;;;;;7.63;2.58;;;;;;;6.38;100.00;99725.69;4943512;29;20074;-82
2023/03/26 05:27:40;;;;;;;6.13;1.75;;;;;;;6.32;100.00;99716.19;4929816;29;20051;-82
2023/03/26 05:30:08;;;;;;;5.45;2.25;;;;;;;6.31;100.00;99721.41;4930703;29;20149;-82
2023/03/26 05:32:39;;;;;;;8.73;2.33;;;;;;;6.31;100.00;99719.69;4933357;29;20053;-82
2023/03/26 05:35:09;;;;;;;4.80;2.30;;;;;;;6.28;100.00;99730.06;4944669;29;20060;-83
2023/03/26 05:37:37;;;;;;;7.72;2.35;;;;;;;6.23;100.00;99717.13;4932574;29;20098;-82
2023/03/26 05:40:10;;;;;;;4.53;2.05;;;;;;;6.30;100.00;99715.34;4941115;29;20094;-81
2023/03/26 05:42:40;;;;;;;6.03;2.70;;;;;;;6.38;100.00;99715.31;4933104;29;20244;-81
2023/03/26 05:45:10;;;;;;;5.38;2.33;;;;;;;6.42;100.00;99720.44;4913716;29;20051;-81
2023/03/26 05:47:37;;;;;;;5.82;2.20;;;;;;;6.49;100.00;99725.63;4933050;29;20043;-81
2023/03/26 05:50:06;;;;;;;6.45;2.47;;;;;;;6.49;100.00;99725.63;4931285;28;20473;-82
2023/03/26 05:52:33;;;;;;;4.18;2.35;;;;;;;6.49;100.00;99729.06;4944359;28;20039;-82
2023/03/26 05:54:59;;;;;;;3.08;2.20;;;;;;;6.53;100.00;99724.72;4931028;29;20110;-81
2023/03/26 05:57:29;;;;;;;8.23;2.20;;;;;;;6.57;100.00;99719.50;4917263;29;20055;-82
2023/03/26 05:59:55;;;;;;;9.65;2.70;;;;;;;6.59;100.00;99716.88;4947454;28;20043;-81
2023/03/26 06:02:22;;;;;;;5.45;1.77;;;;;;;6.60;100.00;99711.66;4930357;28;20085;-84
2023/03/26 06:04:51;;;;;;;5.85;2.30;;;;;;;6.62;100.00;99717.72;4916728;28;20190;-83
2023/03/26 06:07:19;;;;;;;5.05;2.67;;;;;;;6.61;100.00;99713.38;4917758;28;20055;-81
2023/03/26 06:09:46;;;;;;;3.47;2.05;;;;;;;6.67;100.00;99714.22;4945755;29;20529;-82
2023/03/26 06:12:14;;;;;;;9.68;2.60;;;;;;;6.66;100.00;99709.88;4945687;28;20048;-82
2023/03/26 06:14:42;;;;;;;11.25;4.15;;;;;;;6.68;100.00;99701.19;4934563;29;20070;-82
2023/03/26 06:17:10;;;;;;;4.43;2.08;;;;;;;6.72;100.00;99705.47;4915692;29;20130;-82
2023/03/26 06:19:37;;;;;;;5.07;2.33;;;;;;;6.75;100.00;99702.00;4917376;29;20678;-81
2023/03/26 06:22:06;;;;;;;6.13;2.35;;;;;;;6.78;100.00;99707.19;4942802;28;20045;-82
2023/03/26 06:24:33;;;;;;;8.00;2.58;;;;;;;6.82;100.00;99706.28;4950173;28;20138;-85
2023/03/26 06:27:00;;;;;;;5.43;2.72;;;;;;;6.83;100.00;99701.94;4918364;28;20051;-82
2023/03/26 06:29:27;;;;;;;8.40;2.30;;;;;;;6.82;100.00;99700.19;4919248;29;20078;-82
2023/03/26 06:31:53;;;;;;;3.60;2.22;;;;;;;6.85;100.00;99698.44;4932733;29;20063;-82
2023/03/26 06:34:20;;;;;;;8.73;2.92;;;;;;;6.90;100.00;99699.25;4939283;28;20039;-83
2023/03/26 06:36:47;;;;;;;4.72;2.70;;;;;;;6.97;100.00;99696.59;4939643;28;20047;-82
2023/03/26 06:39:14;;;;;;;6.22;2.40;;;;;;;6.99;100.00;99690.50;4930880;29;20513;-84
2023/03/26 06:41:41;;;;;;;7.00;3.35;;;;;;;6.99;100.00;99693.13;4913564;29;20047;-82
2023/03/26 06:44:07;;;;;;;5.70;1.88;;;;;;;7.01;100.00;99690.50;4916500;29;20051;-82
2023/03/26 06:46:34;;;;;;;7.72;2.17;;;;;;;7.00;100.00;99692.25;4942909;29;20051;-83
2023/03/26 06:49:00;;;;;;;4.18;1.80;;;;;;;7.06;100.00;99680.91;4929184;29;20407;-82
2023/03/26 06:51:27;;;;;;;2.58;1.52;;;;;;;7.10;100.00;99683.47;4932001;29;20383;-81
2023/03/26 06:53:54;;;;;;;5.53;2.65;;;;;;;7.10;100.00;99696.47;4941566;29;20514;-82
2023/03/26 06:56:22;;;;;;;9.18;2.38;;;;;;;7.12;100.00;99697.31;4943958;28;20135;-84
2023/03/26 06:58:48;;;;;;;7.22;1.70;;;;;;;7.15;100.00;99693.81;4927576;29;20055;-82
2023/03/26 07:01:21;;;;;;;3.92;1.73;;;;;;;7.19;100.00;99689.44;4930317;29;20039;-83
2023/03/26 07:03:47;;;;;;;5.95;1.67;;;;;;;7.25;100.00;99692.00;4932763;29;20043;-83
2023/03/26 07:06:13;;;;;;;3.95;2.05;;;;;;;7.28;100.00;99689.34;4950470;29;20509;-82
2023/03/26 07:08:43;;;;;;;5.95;1.67;;;;;;;7.29;100.00;99688.47;4926349;28;20139;-83
2023/03/26 07:11:10;;;;;;;3.67;1.50;;;;;;;7.34;100.00;99688.41;4947593;28;20106;-82
2023/03/26 07:13:37;;;;;;;7.32;1.92;;;;;;;7.44;100.00;99684.81;4932838;29;20049;-82
2023/03/26 07:16:04;;;;;;;8.45;1.75;;;;;;;7.61;98.74;99685.50;4918717;29;20066;-82
2023/03/26 07:18:30;;;;;;;5.57;1.73;;;;;;;7.68;97.53;99673.25;4917877;29;20067;-83
2023/03/26 07:20:57;;;;;;;4.93;1.80;;;;;;;7.76;96.69;99681.81;4920843;29;20054;-82
2023/03/26 07:23:24;;;;;;;3.13;1.75;;;;;;;7.87;95.63;99668.63;4927007;29;20094;-83
2023/03/26 07:25:51;;;;;;;4.20;2.45;;;;;;;8.10;95.55;99672.69;4932055;29;20067;-83
2023/03/26 07:28:36;;;;;;;7.45;1.63;;;;;;;8.36;93.16;99676.66;4919519;29;20541;-82
2023/03/26 07:31:35;;;;;;;7.32;1.50;;;;;;;8.47;92.21;99671.28;4913893;29;20384;-85
2023/03/26 07:34:42;;;;;;;7.43;1.80;;;;;;;8.40;93.18;99662.66;4937363;29;20501;-90
2023/03/26 07:37:51;;;;;;;4.10;1.60;;;;;;;8.39;92.44;99661.78;4922603;29;20059;-90
2023/03/26 07:41:00;;;;;;;5.60;1.70;;;;;;;8.48;93.45;99663.44;4935093;28;20358;-88
2023/03/26 07:44:10;;;;;;;3.50;1.40;;;;;;;8.58;91.68;99658.94;4935558;29;20969;-89
2023/03/26 07:46:40;;;;;;;4.50;1.05;;;;;;;8.86;90.21;99659.28;4952880;29;20138;-90
2023/03/26 07:49:13;;;;;;;4.65;1.65;;;;;;;9.14;88.39;99655.31;4922896;29;20506;-88
2023/03/26 07:51:42;;;;;;;;;;;;;;;9.51;87.62;99646.75;4941794;29;20042;-89
2023/03/26 07:54:11;;;;;;;8.93;1.83;;;;;;;9.79;86.70;99649.66;4950468;29;20388;-88
2023/03/26 07:56:46;;;;;;;2.08;1.45;;;;;;;9.87;85.80;99645.09;4925497;29;20047;-89
2023/03/26 07:59:29;;;;;;;2.92;1.65;;;;;;;9.85;84.75;99640.81;4947933;29;20050;-86
2023/03/26 08:02:41;;;;;;;4.57;2.53;;;;;;;9.81;83.95;99640.00;4922226;29;20580;-84
2023/03/26 08:05:36;;;;;;;6.80;1.55;;;;;;;9.90;83.53;99639.78;4917770;29;20058;-84
2023/03/26 08:08:19;;;;;;;4.80;1.50;;;;;;;10.06;82.37;99635.09;4917435;28;20048;-84
2023/03/26 08:11:26;;;;;;;6.80;1.30;;;;;;;10.09;80.31;99631.56;4935660;29;20154;-85
2023/03/26 08:14:33;;;;;;;3.55;1.70;;;;;;;10.31;82.05;99624.06;4933461;29;20046;-85
2023/03/26 08:17:17;;;;;;;6.50;1.73;;;;;;;10.66;79.46;99631.94;4918925;28;20051;-85
2023/03/26 08:19:56;;;;;;;4.10;1.20;;;;;;;10.59;78.08;99632.09;4936680;28;20437;-85
2023/03/26 08:22:35;;;;;;;4.45;1.13;;;;;;;10.28;79.14;99634.56;4919729;29;20035;-84
2023/03/26 08:25:18;;;;;;;7.05;1.08;;;;;;;10.04;81.03;99634.25;4932743;29;20474;-85
2023/03/26 08:28:04;;;;;;;4.95;1.10;;;;;;;9.89;79.40;99634.59;4920179;29;20055;-86
2023/03/26 08:30:33;;;;;;;2.17;1.15;;;;;;;9.61;80.21;99643.06;4914680;29;20055;-86
2023/03/26 08:33:20;;;;;;;2.67;0.90;;;;;;;9.52;79.53;99638.03;4934844;28;20043;-86
2023/03/26 08:35:48;;;;;;;3.60;0.95;;;;;;;9.43;79.43;99641.69;4931776;29;20055;-85
2023/03/26 08:38:18;;;;;;;3.65;0.70;;;;;;;9.45;80.07;99639.88;4936244;29;20051;-83
2023/03/26 08:41:27;;;;;;;1.73;0.75;;;;;;;9.66;79.81;99637.72;4919345;29;20178;-84
2023/03/26 08:44:36;;;;;;;0.50;0.50;;;;;;;9.88;78.98;99635.50;4933290;28;20055;-85
2023/03/26 08:48:04;;;;;;;6.05;1.23;;;;;;;10.05;78.33;99633.38;4922318;28;20054;-84
2023/03/26 08:51:22;;;;;;;6.43;0.80;;;;;;;10.16;77.60;99633.13;4903111;29;20133;-87
2023/03/26 08:54:23;;;;;;;2.33;0.57;;;;;;;10.30;76.59;99637.16;4917574;29;20528;-85
2023/03/26 08:57:17;;;;;;;1.50;1.00;;;;;;;10.38;73.50;99641.34;4936856;29;20055;-86
2023/03/26 08:59:50;;;;;;;3.97;0.77;;;;;;;10.76;75.05;99629.03;4921338;28;20057;-85
2023/03/26 09:02:59;;;;;;;2.35;0.80;;;;;;;11.51;71.10;99633.09;4946969;28;20047;-87
2023/03/26 09:05:51;;;;;;;1.05;0.50;;;;;;;12.13;69.33;99633.88;4918213;29;20556;-85
2023/03/26 09:09:21;;;;;;;0.68;0.40;;;;;;;12.65;65.99;99639.19;4932175;28;20071;-87
2023/03/26 09:12:46;;;;;;;2.20;0.75;;;;;;;12.94;66.36;99632.06;4932353;29;20051;-86
2023/03/26 09:15:28;;;;;;;2.90;1.10;;;;;;;12.92;65.52;99631.28;4916675;28;20047;-85
2023/03/26 09:18:29;;;;;;;4.07;0.77;;;;;;;12.61;64.65;99624.44;4948159;28;20055;-87
2023/03/26 09:21:48;;;;;;;4.53;1.33;;;;;;;12.47;66.63;99624.91;4932169;29;20425;-86
2023/03/26 09:24:59;;;;;;;1.73;0.88;;;;;;;12.72;66.30;99630.19;4948151;28;20403;-87
2023/03/26 09:27:51;;;;;;;1.63;1.25;;;;;;;12.58;65.64;99622.78;4947091;28;20055;-84
2023/03/26 09:31:01;;;;;;;3.03;0.60;;;;;;;12.19;68.02;99627.56;4916726;29;20051;-87
2023/03/26 09:33:51;;;;;;;2.13;0.70;;;;;;;11.92;68.81;99628.34;4949009;28;20039;-85
2023/03/26 09:36:45;;;;;;;3.97;0.95;;;;;;;12.08;67.88;99625.28;4941400;28;20134;-84
2023/03/26 09:39:27;;;;;;;1.58;0.85;;;;;;;12.18;68.94;99623.25;4943807;28;20576;-87
2023/03/26 09:42:41;;;;;;;7.80;1.30;;;;;;;12.18;68.41;99624.09;4933838;29;20059;-85
2023/03/26 09:45:31;;;;;;;4.32;1.20;;;;;;;11.94;68.56;99617.81;4923470;29;20051;-86
2023/03/26 09:48:47;;;;;;;1.90;0.95;;;;;;;11.50;70.04;99623.53;4918894;29;20118;-88
2023/03/26 09:51:54;;;;;;;3.33;0.98;;;;;;;11.25;71.17;99624.22;4945874;28;20051;-87
2023/03/26 09:54:51;;;;;;;4.88;1.20;;;;;;;11.25;70.92;99625.97;4918338;29;20043;-87
2023/03/26 09:57:42;;;;;;;4.07;1.63;;;;;;;11.79;71.38;99619.16;4932379;28;20070;-85
2023/03/26 10:00:21;;;;;;;4.10;1.17;;;;;;;13.26;67.24;99616.06;4920318;29;20059;-86
2023/03/26 10:03:28;;;;;;;4.78;1.45;;;;;;;14.83;60.80;99609.84;4914083;29;20047;-88
2023/03/26 10:06:37;;;;;;;3.42;1.23;;;;;;;15.28;57.71;99604.41;4936940;28;20122;-86
2023/03/26 10:09:47;;;;;;;4.85;1.45;;;;;;;14.30;59.76;99607.69;4919093;29;20123;-87
2023/03/26 10:12:27;;;;;;;3.85;1.60;;;;;;;13.34;63.94;99606.97;4898447;29;20166;-86
2023/03/26 10:15:05;;;;;;;2.58;1.20;;;;;;;12.82;66.24;99607.09;4935405;29;20051;-87
2023/03/26 10:18:16;;;;;;;4.03;1.50;;;;;;;12.24;68.14;99609.91;4920248;29;20043;-86
2023/03/26 10:20:54;;;;;;;3.85;1.38;;;;;;;12.02;69.82;99610.63;4904117;29;20074;-85
2023/03/26 10:23:57;;;;;;;5.15;1.27;;;;;;;12.17;69.52;99606.63;4943407;28;20147;-85
2023/03/26 10:26:45;;;;;;;4.82;1.80;;;;;;;12.23;68.92;99595.94;4934255;29;20118;-84
2023/03/26 10:29:35;;;;;;;2.42;1.45;;;;;;;12.09;68.17;99600.78;4932234;28;20039;-87
2023/03/26 10:32:26;;;;;;;3.60;1.52;;;;;;;12.20;68.37;99596.06;4947457;28;20048;-87
2023/03/26 10:35:24;;;;;;;5.03;1.50;;;;;;;12.35;67.52;99599.94;4919496;29;20339;-86
2023/03/26 10:37:59;;;;;;;3.90;1.33;;;;;;;12.43;67.39;99590.94;4948463;28;20047;-86
2023/03/26 10:40:32;;;;;;;4.05;1.42;;;;;;;12.44;66.87;99592.66;4938288;29;20058;-86
2023/03/26 10:43:18;;;;;;;3.92;1.45;;;;;;;12.50;65.51;99595.06;4936668;28;20054;-89
2023/03/26 10:46:04;;;;;;;2.97;1.38;;;;;;;12.41;65.92;99593.59;4921460;29;20112;-86
2023/03/26 10:48:49;;;;;;;4.35;1.10;;;;;;;12.26;66.01;99591.53;4934656;29;20066;-86
2023/03/26 10:51:45;;;;;;;5.53;1.10;;;;;;;12.19;66.25;99586.47;4921670;29;20047;-87
2023/03/26 10:54:46;;;;;;;4.50;1.08;;;;;;;12.15;65.95;99587.47;4918916;29;20067;-88
2023/03/26 10:57:53;;;;;;;2.90;1.15;;;;;;;12.11;66.64;99591.13;4938153;28;20056;-88
2023/03/26 11:00:27;;;;;;;4.00;1.88;;;;;;;12.06;66.00;99587.78;4937687;28;20047;-86
2023/03/26 11:03:31;;;;;;;3.47;1.33;;;;;;;12.02;66.13;99584.38;4937445;29;20051;-88
2023/03/26 11:06:34;;;;;;;2.95;1.33;;;;;;;12.21;66.07;99581.16;4950184;29;20087;-88
2023/03/26 11:09:41;;;;;;;5.90;1.67;;;;;;;12.92;64.30;99573.50;4941527;28;20039;-89
2023/03/26 11:12:20;;;;;;;6.40;2.17;;;;;;;13.42;63.28;99576.97;4959713;28;20502;-88
2023/03/26 11:15:17;;;;;;;2.78;0.93;;;;;;;13.63;61.36;99568.22;4927361;29;20486;-88
2023/03/26 11:18:37;;;;;;;5.07;1.15;;;;;;;13.70;61.06;99571.47;4957435;28;20643;-89
2023/03/26 11:21:12;;;;;;;4.47;1.90;;;;;;;13.56;61.08;99569.41;4920007;29;20111;-89
2023/03/26 11:24:09;;;;;;;3.00;1.52;;;;;;;13.74;61.27;99567.84;4927467;28;20052;-86
2023/03/26 11:27:02;;;;;;;2.97;1.10;;;;;;;13.82;59.06;99564.88;4924440;29;20050;-88
2023/03/26 11:29:57;;;;;;;1.42;0.98;;;;;;;13.68;60.34;99568.06;4924304;29;20092;-86
2023/03/26 11:32:41;;;;;;;2.45;0.98;;;;;;;13.80;59.03;99564.09;4939755;29;20039;-88
2023/03/26 11:35:31;;;;;;;5.43;1.50;;;;;;;13.75;58.79;99564.25;4938919;29;20751;-88
2023/03/26 11:38:36;;;;;;;3.85;1.05;;;;;;;14.77;58.13;99565.34;4939692;29;20054;-87
2023/03/26 11:44:15;;;;;;;2.35;1.17;;;;;;;17.17;48.43;99559.09;4940799;28;19926;-87
2023/03/26 11:46:46;;;;;;;3.47;1.20;;;;;;;16.78;48.88;99555.81;4924158;28;20378;-86
2023/03/26 11:49:20;;;;;;;3.55;1.60;;;;;;;15.40;50.03;99556.38;4937881;28;20098;-87
2023/03/26 11:51:49;;;;;;;4.72;1.30;;;;;;;14.56;52.59;99557.44;4936130;29;20575;-85
2023/03/26 11:54:19;;;;;;;4.68;1.02;;;;;;;13.96;54.03;99559.06;4919666;29;20048;-85
2023/03/26 11:56:57;;;;;;;1.58;0.77;;;;;;;13.65;54.46;99565.53;4938765;29;20054;-86
2023/03/26 11:59:30;;;;;;;3.15;1.27;;;;;;;13.56;54.91;99562.38;4948431;28;20064;-85
2023/03/26 12:02:11;;;;;;;3.15;0.57;;;;;;;13.73;54.33;99556.44;4934568;28;20510;-85
2023/03/26 12:04:41;;;;;;;1.75;1.30;;;;;;;13.72;54.69;99556.50;4951395;28;20070;-88
2023/03/26 12:07:22;;;;;;;2.38;1.20;;;;;;;13.86;54.07;99551.53;4937403;28;20052;-88
2023/03/26 12:10:06;;;;;;;3.03;0.82;;;;;;;14.13;52.08;99550.47;4936350;29;20529;-87
2023/03/26 12:12:39;;;;;;;3.08;0.98;;;;;;;14.03;52.40;99547.38;4934686;29;20058;-87
2023/03/26 12:15:17;;;;;;;4.72;1.23;;;;;;;13.41;52.57;99547.19;4918543;28;20083;-87
2023/03/26 12:17:52;;;;;;;5.53;1.23;;;;;;;13.31;54.05;99545.78;4922256;29;20054;-87
2023/03/26 12:20:37;;;;;;;2.20;0.93;;;;;;;13.57;53.31;99542.16;4923847;28;20549;-88
2023/03/26 12:23:06;;;;;;;2.47;1.10;;;;;;;13.66;53.20;99547.09;4920212;29;20051;-87
2023/03/26 12:25:38;;;;;;;2.80;1.10;;;;;;;13.80;52.95;99538.63;4937175;29;20059;-89
2023/03/26 12:28:16;;;;;;;1.88;0.75;;;;;;;14.03;52.66;99540.34;4916703;29;20528;-86